sensor_id;sensor_type;location;lat;lon;timestamp;P1;durP1;ratioP1;P2;durP2;ratioP2
7181;SDS011;3632;42.724;23.298;2023-04-25T00:01:40;4.10;;;2.80;;
7181;SDS011;3632;42.724;23.298;2023-04-25T00:04:08;3.20;;;2.90;;
7181;SDS011;3632;42.724;23.298;2023-04-25T00:06:36;3.50;;;2.63;;
7181;SDS011;3632;42.724;23.298;2023-04-25T00:09:04;3.00;;;2.70;;
7181;SDS011;3632;42.724;23.298;2023-04-25T00:11:34;2.93;;;2.70;;
7181;SDS011;3632;42.724;23.298;2023-04-25T00:14:01;3.10;;;2.80;;
7181;SDS011;3632;42.724;23.298;2023-04-25T00:16:28;3.43;;;3.07;;
7181;SDS011;3632;42.724;23.298;2023-04-25T00:18:59;4.03;;;3.30;;
7181;SDS011;3632;42.724;23.298;2023-04-25T00:21:28;3.67;;;3.00;;
7181;SDS011;3632;42.724;23.298;2023-04-25T00:23:56;6.40;;;3.27;;
7181;SDS011;3632;42.724;23.298;2023-04-25T00:26:23;4.63;;;3.33;;
7181;SDS011;3632;42.724;23.298;2023-04-25T00:28:50;6.23;;;3.20;;
7181;SDS011;3632;42.724;23.298;2023-04-25T00:31:17;6.17;;;3.67;;
7181;SDS011;3632;42.724;23.298;2023-04-25T00:33:44;3.87;;;3.47;;
7181;SDS011;3632;42.724;23.298;2023-04-25T00:36:11;3.53;;;3.23;;
7181;SDS011;3632;42.724;23.298;2023-04-25T00:38:39;3.87;;;3.47;;
7181;SDS011;3632;42.724;23.298;2023-04-25T00:41:07;6.00;;;3.50;;
7181;SDS011;3632;42.724;23.298;2023-04-25T00:43:34;6.20;;;3.93;;
7181;SDS011;3632;42.724;23.298;2023-04-25T00:46:03;5.00;;;3.80;;
7181;SDS011;3632;42.724;23.298;2023-04-25T00:48:30;6.37;;;3.97;;
7181;SDS011;3632;42.724;23.298;2023-04-25T00:50:58;6.70;;;4.37;;
7181;SDS011;3632;42.724;23.298;2023-04-25T00:53:27;5.93;;;4.00;;
7181;SDS011;3632;42.724;23.298;2023-04-25T00:55:56;6.00;;;4.50;;
7181;SDS011;3632;42.724;23.298;2023-04-25T00:58:23;5.57;;;4.37;;
7181;SDS011;3632;42.724;23.298;2023-04-25T01:00:51;5.30;;;4.17;;
7181;SDS011;3632;42.724;23.298;2023-04-25T01:03:18;4.40;;;4.00;;
7181;SDS011;3632;42.724;23.298;2023-04-25T01:05:46;5.27;;;4.47;;
7181;SDS011;3632;42.724;23.298;2023-04-25T01:08:13;6.33;;;4.50;;
7181;SDS011;3632;42.724;23.298;2023-04-25T01:10:40;5.10;;;4.70;;
7181;SDS011;3632;42.724;23.298;2023-04-25T01:13:08;5.43;;;4.93;;
7181;SDS011;3632;42.724;23.298;2023-04-25T01:15:35;6.67;;;4.53;;
7181;SDS011;3632;42.724;23.298;2023-04-25T01:18:02;5.60;;;4.93;;
7181;SDS011;3632;42.724;23.298;2023-04-25T01:20:30;5.33;;;4.83;;
7181;SDS011;3632;42.724;23.298;2023-04-25T01:23:00;5.80;;;5.20;;
7181;SDS011;3632;42.724;23.298;2023-04-25T01:25:28;5.20;;;4.80;;
7181;SDS011;3632;42.724;23.298;2023-04-25T01:27:56;5.73;;;5.23;;
7181;SDS011;3632;42.724;23.298;2023-04-25T01:30:23;6.00;;;4.90;;
7181;SDS011;3632;42.724;23.298;2023-04-25T01:32:52;5.90;;;5.40;;
7181;SDS011;3632;42.724;23.298;2023-04-25T01:35:21;6.17;;;5.57;;
7181;SDS011;3632;42.724;23.298;2023-04-25T01:37:50;6.73;;;6.07;;
7181;SDS011;3632;42.724;23.298;2023-04-25T01:40:19;6.43;;;5.87;;
7181;SDS011;3632;42.724;23.298;2023-04-25T01:42:48;6.80;;;5.57;;
7181;SDS011;3632;42.724;23.298;2023-04-25T01:45:15;7.20;;;6.07;;
7181;SDS011;3632;42.724;23.298;2023-04-25T01:47:41;6.47;;;5.87;;
7181;SDS011;3632;42.724;23.298;2023-04-25T01:50:12;7.20;;;6.50;;
7181;SDS011;3632;42.724;23.298;2023-04-25T01:52:39;7.33;;;6.60;;
7181;SDS011;3632;42.724;23.298;2023-04-25T01:55:06;7.90;;;6.87;;
7181;SDS011;3632;42.724;23.298;2023-04-25T01:57:35;7.43;;;6.73;;
7181;SDS011;3632;42.724;23.298;2023-04-25T02:00:03;7.20;;;6.50;;
7181;SDS011;3632;42.724;23.298;2023-04-25T02:02:33;8.37;;;6.70;;
7181;SDS011;3632;42.724;23.298;2023-04-25T02:05:00;8.00;;;7.30;;
7181;SDS011;3632;42.724;23.298;2023-04-25T02:07:27;8.07;;;6.53;;
7181;SDS011;3632;42.724;23.298;2023-04-25T02:09:54;7.40;;;6.70;;
7181;SDS011;3632;42.724;23.298;2023-04-25T02:12:21;6.93;;;6.23;;
7181;SDS011;3632;42.724;23.298;2023-04-25T02:14:49;7.30;;;6.33;;
7181;SDS011;3632;42.724;23.298;2023-04-25T02:17:16;7.60;;;6.50;;
7181;SDS011;3632;42.724;23.298;2023-04-25T02:19:42;8.40;;;7.47;;
7181;SDS011;3632;42.724;23.298;2023-04-25T02:22:09;7.00;;;6.30;;
7181;SDS011;3632;42.724;23.298;2023-04-25T02:24:37;6.83;;;6.20;;
7181;SDS011;3632;42.724;23.298;2023-04-25T02:27:05;8.07;;;6.20;;
7181;SDS011;3632;42.724;23.298;2023-04-25T02:29:32;7.77;;;7.07;;
7181;SDS011;3632;42.724;23.298;2023-04-25T02:32:01;7.70;;;7.00;;
7181;SDS011;3632;42.724;23.298;2023-04-25T02:34:27;8.30;;;6.77;;
7181;SDS011;3632;42.724;23.298;2023-04-25T02:36:54;8.13;;;7.33;;
7181;SDS011;3632;42.724;23.298;2023-04-25T02:39:21;7.97;;;6.43;;
7181;SDS011;3632;42.724;23.298;2023-04-25T02:41:50;6.40;;;5.80;;
7181;SDS011;3632;42.724;23.298;2023-04-25T02:44:16;8.27;;;7.27;;
7181;SDS011;3632;42.724;23.298;2023-04-25T02:46:43;6.70;;;6.00;;
7181;SDS011;3632;42.724;23.298;2023-04-25T02:49:11;8.00;;;6.20;;
7181;SDS011;3632;42.724;23.298;2023-04-25T02:51:38;7.20;;;6.50;;
7181;SDS011;3632;42.724;23.298;2023-04-25T02:54:05;8.77;;;7.87;;
7181;SDS011;3632;42.724;23.298;2023-04-25T02:56:32;9.97;;;6.30;;
7181;SDS011;3632;42.724;23.298;2023-04-25T02:58:59;11.60;;;9.30;;
7181;SDS011;3632;42.724;23.298;2023-04-25T03:01:25;6.40;;;5.53;;
7181;SDS011;3632;42.724;23.298;2023-04-25T03:03:52;6.47;;;5.87;;
7181;SDS011;3632;42.724;23.298;2023-04-25T03:06:20;6.07;;;5.47;;
7181;SDS011;3632;42.724;23.298;2023-04-25T03:08:47;6.03;;;5.43;;
7181;SDS011;3632;42.724;23.298;2023-04-25T03:11:14;6.70;;;5.97;;
7181;SDS011;3632;42.724;23.298;2023-04-25T03:13:41;6.57;;;5.97;;
7181;SDS011;3632;42.724;23.298;2023-04-25T03:16:07;6.80;;;6.10;;
7181;SDS011;3632;42.724;23.298;2023-04-25T03:18:34;10.27;;;8.33;;
7181;SDS011;3632;42.724;23.298;2023-04-25T03:21:01;7.73;;;7.03;;
7181;SDS011;3632;42.724;23.298;2023-04-25T03:23:30;6.77;;;6.17;;
7181;SDS011;3632;42.724;23.298;2023-04-25T03:25:57;6.47;;;5.87;;
7181;SDS011;3632;42.724;23.298;2023-04-25T03:28:23;12.23;;;10.03;;
7181;SDS011;3632;42.724;23.298;2023-04-25T03:30:50;7.63;;;6.73;;
7181;SDS011;3632;42.724;23.298;2023-04-25T03:33:17;7.40;;;6.60;;
7181;SDS011;3632;42.724;23.298;2023-04-25T03:35:44;6.90;;;6.03;;
7181;SDS011;3632;42.724;23.298;2023-04-25T03:38:11;7.30;;;6.53;;
7181;SDS011;3632;42.724;23.298;2023-04-25T03:40:39;8.73;;;6.67;;
7181;SDS011;3632;42.724;23.298;2023-04-25T03:43:06;7.53;;;6.23;;
7181;SDS011;3632;42.724;23.298;2023-04-25T03:45:34;7.70;;;7.00;;
7181;SDS011;3632;42.724;23.298;2023-04-25T03:48:00;8.97;;;7.13;;
7181;SDS011;3632;42.724;23.298;2023-04-25T03:50:27;14.13;;;11.17;;
7181;SDS011;3632;42.724;23.298;2023-04-25T03:52:54;11.13;;;8.60;;
7181;SDS011;3632;42.724;23.298;2023-04-25T03:55:21;8.30;;;6.73;;
7181;SDS011;3632;42.724;23.298;2023-04-25T03:57:49;7.87;;;6.90;;
7181;SDS011;3632;42.724;23.298;2023-04-25T04:00:16;7.63;;;6.83;;
7181;SDS011;3632;42.724;23.298;2023-04-25T04:02:43;7.37;;;6.63;;
7181;SDS011;3632;42.724;23.298;2023-04-25T04:05:09;9.20;;;7.07;;
7181;SDS011;3632;42.724;23.298;2023-04-25T04:07:36;8.20;;;7.40;;
7181;SDS011;3632;42.724;23.298;2023-04-25T04:10:05;9.23;;;7.47;;
7181;SDS011;3632;42.724;23.298;2023-04-25T04:12:32;9.13;;;8.20;;
7181;SDS011;3632;42.724;23.298;2023-04-25T04:15:01;8.57;;;7.57;;
7181;SDS011;3632;42.724;23.298;2023-04-25T04:17:28;9.00;;;8.10;;
7181;SDS011;3632;42.724;23.298;2023-04-25T04:19:55;9.30;;;7.90;;
7181;SDS011;3632;42.724;23.298;2023-04-25T04:22:22;8.57;;;7.43;;
7181;SDS011;3632;42.724;23.298;2023-04-25T04:24:49;10.80;;;8.53;;
7181;SDS011;3632;42.724;23.298;2023-04-25T04:27:17;8.37;;;7.40;;
7181;SDS011;3632;42.724;23.298;2023-04-25T04:29:44;8.17;;;7.37;;
7181;SDS011;3632;42.724;23.298;2023-04-25T04:32:12;8.17;;;7.37;;
7181;SDS011;3632;42.724;23.298;2023-04-25T04:34:39;9.10;;;7.93;;
7181;SDS011;3632;42.724;23.298;2023-04-25T04:37:07;11.77;;;10.57;;
7181;SDS011;3632;42.724;23.298;2023-04-25T04:39:34;10.07;;;9.07;;
7181;SDS011;3632;42.724;23.298;2023-04-25T04:42:01;8.47;;;7.67;;
7181;SDS011;3632;42.724;23.298;2023-04-25T04:44:30;8.50;;;7.70;;
7181;SDS011;3632;42.724;23.298;2023-04-25T04:46:57;9.13;;;8.23;;
7181;SDS011;3632;42.724;23.298;2023-04-25T04:49:26;8.53;;;7.63;;
7181;SDS011;3632;42.724;23.298;2023-04-25T04:51:55;9.00;;;8.10;;
7181;SDS011;3632;42.724;23.298;2023-04-25T04:54:22;9.10;;;8.03;;
7181;SDS011;3632;42.724;23.298;2023-04-25T04:56:49;8.37;;;7.53;;
7181;SDS011;3632;42.724;23.298;2023-04-25T04:59:17;7.77;;;6.93;;
7181;SDS011;3632;42.724;23.298;2023-04-25T05:01:44;8.10;;;7.30;;
7181;SDS011;3632;42.724;23.298;2023-04-25T05:04:11;9.10;;;8.00;;
7181;SDS011;3632;42.724;23.298;2023-04-25T05:06:40;9.37;;;7.33;;
7181;SDS011;3632;42.724;23.298;2023-04-25T05:09:07;8.90;;;8.00;;
7181;SDS011;3632;42.724;23.298;2023-04-25T05:11:33;12.27;;;7.63;;
7181;SDS011;3632;42.724;23.298;2023-04-25T05:14:00;8.83;;;7.70;;
7181;SDS011;3632;42.724;23.298;2023-04-25T05:16:27;9.43;;;7.80;;
7181;SDS011;3632;42.724;23.298;2023-04-25T05:18:54;8.47;;;7.27;;
7181;SDS011;3632;42.724;23.298;2023-04-25T05:21:20;8.40;;;6.60;;
7181;SDS011;3632;42.724;23.298;2023-04-25T05:23:49;6.87;;;6.00;;
7181;SDS011;3632;42.724;23.298;2023-04-25T05:26:15;7.23;;;6.20;;
7181;SDS011;3632;42.724;23.298;2023-04-25T05:28:42;7.57;;;6.70;;
7181;SDS011;3632;42.724;23.298;2023-04-25T05:31:09;8.33;;;7.43;;
7181;SDS011;3632;42.724;23.298;2023-04-25T05:33:36;8.27;;;7.43;;
7181;SDS011;3632;42.724;23.298;2023-04-25T05:36:03;8.23;;;7.23;;
7181;SDS011;3632;42.724;23.298;2023-04-25T05:38:30;9.53;;;6.57;;
7181;SDS011;3632;42.724;23.298;2023-04-25T05:40:59;9.27;;;7.17;;
7181;SDS011;3632;42.724;23.298;2023-04-25T05:43:26;7.57;;;6.80;;
7181;SDS011;3632;42.724;23.298;2023-04-25T05:45:52;8.03;;;6.40;;
7181;SDS011;3632;42.724;23.298;2023-04-25T05:48:20;8.57;;;7.67;;
7181;SDS011;3632;42.724;23.298;2023-04-25T05:50:46;21.43;;;17.17;;
7181;SDS011;3632;42.724;23.298;2023-04-25T05:53:13;10.10;;;7.47;;
7181;SDS011;3632;42.724;23.298;2023-04-25T05:55:40;9.13;;;6.70;;
7181;SDS011;3632;42.724;23.298;2023-04-25T05:58:09;7.37;;;6.67;;
7181;SDS011;3632;42.724;23.298;2023-04-25T06:00:36;7.50;;;6.77;;
7181;SDS011;3632;42.724;23.298;2023-04-25T06:03:03;7.20;;;6.50;;
7181;SDS011;3632;42.724;23.298;2023-04-25T06:05:30;7.43;;;6.63;;
7181;SDS011;3632;42.724;23.298;2023-04-25T06:07:57;8.67;;;6.03;;
7181;SDS011;3632;42.724;23.298;2023-04-25T06:10:23;7.80;;;6.47;;
7181;SDS011;3632;42.724;23.298;2023-04-25T06:12:50;7.30;;;6.60;;
7181;SDS011;3632;42.724;23.298;2023-04-25T06:15:19;7.40;;;6.00;;
7181;SDS011;3632;42.724;23.298;2023-04-25T06:17:45;7.83;;;6.53;;
7181;SDS011;3632;42.724;23.298;2023-04-25T06:20:12;10.67;;;6.87;;
7181;SDS011;3632;42.724;23.298;2023-04-25T06:22:39;8.63;;;7.73;;
7181;SDS011;3632;42.724;23.298;2023-04-25T06:25:06;10.50;;;9.40;;
7181;SDS011;3632;42.724;23.298;2023-04-25T06:27:33;10.77;;;9.63;;
7181;SDS011;3632;42.724;23.298;2023-04-25T06:29:59;13.20;;;9.90;;
7181;SDS011;3632;42.724;23.298;2023-04-25T06:32:27;10.67;;;9.03;;
7181;SDS011;3632;42.724;23.298;2023-04-25T06:34:55;10.57;;;8.60;;
7181;SDS011;3632;42.724;23.298;2023-04-25T06:37:22;9.67;;;8.73;;
7181;SDS011;3632;42.724;23.298;2023-04-25T06:39:49;10.17;;;8.67;;
7181;SDS011;3632;42.724;23.298;2023-04-25T06:42:16;8.73;;;7.73;;
7181;SDS011;3632;42.724;23.298;2023-04-25T06:44:43;9.87;;;8.43;;
7181;SDS011;3632;42.724;23.298;2023-04-25T06:47:09;10.07;;;9.03;;
7181;SDS011;3632;42.724;23.298;2023-04-25T06:49:38;13.77;;;11.20;;
7181;SDS011;3632;42.724;23.298;2023-04-25T06:52:05;11.50;;;9.93;;
7181;SDS011;3632;42.724;23.298;2023-04-25T06:54:31;10.87;;;9.80;;
7181;SDS011;3632;42.724;23.298;2023-04-25T06:56:58;10.27;;;9.17;;
7181;SDS011;3632;42.724;23.298;2023-04-25T06:59:26;10.73;;;8.87;;
7181;SDS011;3632;42.724;23.298;2023-04-25T07:01:53;11.33;;;8.40;;
7181;SDS011;3632;42.724;23.298;2023-04-25T07:04:19;9.70;;;8.70;;
7181;SDS011;3632;42.724;23.298;2023-04-25T07:06:48;12.13;;;7.80;;
7181;SDS011;3632;42.724;23.298;2023-04-25T07:09:14;9.47;;;7.97;;
7181;SDS011;3632;42.724;23.298;2023-04-25T07:11:41;12.70;;;8.30;;
7181;SDS011;3632;42.724;23.298;2023-04-25T07:14:08;9.20;;;7.90;;
7181;SDS011;3632;42.724;23.298;2023-04-25T07:16:35;14.40;;;7.83;;
7181;SDS011;3632;42.724;23.298;2023-04-25T07:19:02;11.97;;;7.83;;
7181;SDS011;3632;42.724;23.298;2023-04-25T07:21:28;10.73;;;7.97;;
7181;SDS011;3632;42.724;23.298;2023-04-25T07:23:57;10.03;;;8.37;;
7181;SDS011;3632;42.724;23.298;2023-04-25T07:26:24;12.33;;;10.13;;
7181;SDS011;3632;42.724;23.298;2023-04-25T07:28:51;11.13;;;8.67;;
7181;SDS011;3632;42.724;23.298;2023-04-25T07:31:18;10.97;;;8.40;;
7181;SDS011;3632;42.724;23.298;2023-04-25T07:33:44;12.00;;;8.90;;
7181;SDS011;3632;42.724;23.298;2023-04-25T07:36:11;12.37;;;8.57;;
7181;SDS011;3632;42.724;23.298;2023-04-25T07:38:40;17.40;;;9.00;;
7181;SDS011;3632;42.724;23.298;2023-04-25T07:41:08;13.10;;;9.93;;
7181;SDS011;3632;42.724;23.298;2023-04-25T07:43:35;16.20;;;9.60;;
7181;SDS011;3632;42.724;23.298;2023-04-25T07:46:01;13.93;;;9.47;;
7181;SDS011;3632;42.724;23.298;2023-04-25T07:48:28;12.17;;;9.30;;
7181;SDS011;3632;42.724;23.298;2023-04-25T07:50:55;12.90;;;9.40;;
7181;SDS011;3632;42.724;23.298;2023-04-25T07:53:22;15.70;;;10.13;;
7181;SDS011;3632;42.724;23.298;2023-04-25T07:55:49;13.77;;;9.63;;
7181;SDS011;3632;42.724;23.298;2023-04-25T07:58:17;13.23;;;8.80;;
7181;SDS011;3632;42.724;23.298;2023-04-25T08:00:46;15.33;;;8.73;;
7181;SDS011;3632;42.724;23.298;2023-04-25T08:03:13;11.53;;;9.03;;
7181;SDS011;3632;42.724;23.298;2023-04-25T08:05:40;16.30;;;9.13;;
7181;SDS011;3632;42.724;23.298;2023-04-25T08:08:07;11.23;;;8.83;;
7181;SDS011;3632;42.724;23.298;2023-04-25T08:10:33;13.23;;;9.53;;
7181;SDS011;3632;42.724;23.298;2023-04-25T08:13:00;10.20;;;8.93;;
7181;SDS011;3632;42.724;23.298;2023-04-25T08:15:28;12.57;;;9.03;;
7181;SDS011;3632;42.724;23.298;2023-04-25T08:17:55;12.40;;;9.07;;
7181;SDS011;3632;42.724;23.298;2023-04-25T08:20:22;12.47;;;10.27;;
7181;SDS011;3632;42.724;23.298;2023-04-25T08:22:49;15.50;;;10.37;;
7181;SDS011;3632;42.724;23.298;2023-04-25T08:25:16;12.20;;;10.90;;
7181;SDS011;3632;42.724;23.298;2023-04-25T08:27:43;15.87;;;8.70;;
7181;SDS011;3632;42.724;23.298;2023-04-25T08:30:10;10.47;;;8.70;;
7181;SDS011;3632;42.724;23.298;2023-04-25T08:32:38;19.73;;;11.73;;
7181;SDS011;3632;42.724;23.298;2023-04-25T08:35:11;18.00;;;9.43;;
7181;SDS011;3632;42.724;23.298;2023-04-25T08:37:38;14.10;;;11.20;;
7181;SDS011;3632;42.724;23.298;2023-04-25T08:40:05;7.40;;;5.17;;
7181;SDS011;3632;42.724;23.298;2023-04-25T08:42:36;9.10;;;6.10;;
7181;SDS011;3632;42.724;23.298;2023-04-25T08:45:04;9.27;;;4.57;;
7181;SDS011;3632;42.724;23.298;2023-04-25T08:47:33;8.87;;;4.70;;
7181;SDS011;3632;42.724;23.298;2023-04-25T08:50:03;7.37;;;5.63;;
7181;SDS011;3632;42.724;23.298;2023-04-25T08:52:36;9.23;;;5.67;;
7181;SDS011;3632;42.724;23.298;2023-04-25T08:55:04;8.93;;;7.30;;
7181;SDS011;3632;42.724;23.298;2023-04-25T08:57:35;11.33;;;7.13;;
7181;SDS011;3632;42.724;23.298;2023-04-25T09:00:03;9.37;;;7.87;;
7181;SDS011;3632;42.724;23.298;2023-04-25T09:02:33;12.73;;;9.03;;
7181;SDS011;3632;42.724;23.298;2023-04-25T09:05:00;11.77;;;10.53;;
7181;SDS011;3632;42.724;23.298;2023-04-25T09:07:30;12.87;;;9.67;;
7181;SDS011;3632;42.724;23.298;2023-04-25T09:09:56;10.00;;;8.47;;
7181;SDS011;3632;42.724;23.298;2023-04-25T09:12:24;9.53;;;7.87;;
7181;SDS011;3632;42.724;23.298;2023-04-25T09:15:01;7.77;;;6.97;;
7181;SDS011;3632;42.724;23.298;2023-04-25T09:17:32;10.93;;;8.93;;
7181;SDS011;3632;42.724;23.298;2023-04-25T09:20:08;11.20;;;8.60;;
7181;SDS011;3632;42.724;23.298;2023-04-25T09:22:36;15.00;;;11.90;;
7181;SDS011;3632;42.724;23.298;2023-04-25T09:25:04;10.00;;;8.80;;
7181;SDS011;3632;42.724;23.298;2023-04-25T09:27:35;7.17;;;5.77;;
7181;SDS011;3632;42.724;23.298;2023-04-25T09:30:02;13.60;;;10.40;;
7181;SDS011;3632;42.724;23.298;2023-04-25T09:32:29;11.03;;;9.50;;
7181;SDS011;3632;42.724;23.298;2023-04-25T09:34:57;6.47;;;5.87;;
7181;SDS011;3632;42.724;23.298;2023-04-25T09:37:26;6.13;;;5.53;;
7181;SDS011;3632;42.724;23.298;2023-04-25T09:39:54;5.70;;;4.80;;
7181;SDS011;3632;42.724;23.298;2023-04-25T09:42:22;6.43;;;5.47;;
7181;SDS011;3632;42.724;23.298;2023-04-25T09:44:51;6.20;;;5.10;;
7181;SDS011;3632;42.724;23.298;2023-04-25T09:47:19;4.10;;;3.70;;
7181;SDS011;3632;42.724;23.298;2023-04-25T09:49:48;5.50;;;4.37;;
7181;SDS011;3632;42.724;23.298;2023-04-25T09:52:16;4.70;;;3.90;;
7181;SDS011;3632;42.724;23.298;2023-04-25T09:54:45;4.20;;;3.17;;
7181;SDS011;3632;42.724;23.298;2023-04-25T09:57:13;4.10;;;3.70;;
7181;SDS011;3632;42.724;23.298;2023-04-25T09:59:44;2.90;;;2.60;;
7181;SDS011;3632;42.724;23.298;2023-04-25T10:02:13;2.27;;;2.07;;
7181;SDS011;3632;42.724;23.298;2023-04-25T10:04:41;4.87;;;3.30;;
7181;SDS011;3632;42.724;23.298;2023-04-25T10:07:10;3.37;;;2.23;;
7181;SDS011;3632;42.724;23.298;2023-04-25T10:09:38;2.80;;;2.60;;
7181;SDS011;3632;42.724;23.298;2023-04-25T10:12:07;3.67;;;3.03;;
7181;SDS011;3632;42.724;23.298;2023-04-25T10:14:34;4.80;;;4.30;;
7181;SDS011;3632;42.724;23.298;2023-04-25T10:17:02;11.37;;;7.93;;
7181;SDS011;3632;42.724;23.298;2023-04-25T10:19:29;5.10;;;3.10;;
7181;SDS011;3632;42.724;23.298;2023-04-25T10:22:00;2.90;;;2.60;;
7181;SDS011;3632;42.724;23.298;2023-04-25T10:24:31;3.23;;;2.50;;
7181;SDS011;3632;42.724;23.298;2023-04-25T10:27:00;3.97;;;2.63;;
7181;SDS011;3632;42.724;23.298;2023-04-25T10:29:30;2.40;;;2.10;;
7181;SDS011;3632;42.724;23.298;2023-04-25T10:31:57;3.03;;;2.00;;
7181;SDS011;3632;42.724;23.298;2023-04-25T10:34:37;1.40;;;1.30;;
7181;SDS011;3632;42.724;23.298;2023-04-25T10:37:08;2.33;;;1.97;;
7181;SDS011;3632;42.724;23.298;2023-04-25T10:39:36;2.80;;;1.60;;
7181;SDS011;3632;42.724;23.298;2023-04-25T10:42:05;3.20;;;1.67;;
7181;SDS011;3632;42.724;23.298;2023-04-25T10:44:34;4.40;;;2.30;;
7181;SDS011;3632;42.724;23.298;2023-04-25T10:47:03;5.07;;;2.93;;
7181;SDS011;3632;42.724;23.298;2023-04-25T10:49:36;3.57;;;2.30;;
7181;SDS011;3632;42.724;23.298;2023-04-25T10:52:10;2.07;;;1.60;;
7181;SDS011;3632;42.724;23.298;2023-04-25T10:54:42;2.47;;;2.13;;
7181;SDS011;3632;42.724;23.298;2023-04-25T10:57:28;4.10;;;2.73;;
7181;SDS011;3632;42.724;23.298;2023-04-25T11:00:04;4.37;;;2.60;;
7181;SDS011;3632;42.724;23.298;2023-04-25T11:02:37;2.83;;;2.00;;
7181;SDS011;3632;42.724;23.298;2023-04-25T11:05:04;1.73;;;1.60;;
7181;SDS011;3632;42.724;23.298;2023-04-25T11:07:33;1.97;;;1.30;;
7181;SDS011;3632;42.724;23.298;2023-04-25T11:10:05;3.03;;;2.47;;
7181;SDS011;3632;42.724;23.298;2023-04-25T11:12:32;2.80;;;1.67;;
7181;SDS011;3632;42.724;23.298;2023-04-25T11:15:02;2.57;;;1.80;;
7181;SDS011;3632;42.724;23.298;2023-04-25T11:17:31;4.23;;;3.03;;
7181;SDS011;3632;42.724;23.298;2023-04-25T11:19:58;3.07;;;2.20;;
7181;SDS011;3632;42.724;23.298;2023-04-25T11:22:26;2.30;;;1.97;;
7181;SDS011;3632;42.724;23.298;2023-04-25T11:24:53;4.70;;;3.60;;
7181;SDS011;3632;42.724;23.298;2023-04-25T11:27:20;7.57;;;2.90;;
7181;SDS011;3632;42.724;23.298;2023-04-25T11:29:49;4.00;;;2.10;;
7181;SDS011;3632;42.724;23.298;2023-04-25T11:32:18;1.80;;;1.40;;
7181;SDS011;3632;42.724;23.298;2023-04-25T11:34:46;2.97;;;2.27;;
7181;SDS011;3632;42.724;23.298;2023-04-25T11:37:13;4.53;;;4.13;;
7181;SDS011;3632;42.724;23.298;2023-04-25T11:39:42;2.93;;;2.00;;
7181;SDS011;3632;42.724;23.298;2023-04-25T11:42:14;2.97;;;1.73;;
7181;SDS011;3632;42.724;23.298;2023-04-25T11:44:41;1.37;;;1.27;;
7181;SDS011;3632;42.724;23.298;2023-04-25T11:47:08;1.57;;;1.47;;
7181;SDS011;3632;42.724;23.298;2023-04-25T11:49:36;2.90;;;1.20;;
7181;SDS011;3632;42.724;23.298;2023-04-25T11:52:03;0.80;;;0.80;;
7181;SDS011;3632;42.724;23.298;2023-04-25T11:54:34;2.33;;;1.23;;
7181;SDS011;3632;42.724;23.298;2023-04-25T11:57:02;2.23;;;1.70;;
7181;SDS011;3632;42.724;23.298;2023-04-25T11:59:29;2.30;;;1.50;;
7181;SDS011;3632;42.724;23.298;2023-04-25T12:01:56;2.87;;;1.37;;
7181;SDS011;3632;42.724;23.298;2023-04-25T12:04:24;2.17;;;1.40;;
7181;SDS011;3632;42.724;23.298;2023-04-25T12:06:52;1.53;;;1.00;;
7181;SDS011;3632;42.724;23.298;2023-04-25T12:09:21;1.40;;;1.30;;
7181;SDS011;3632;42.724;23.298;2023-04-25T12:11:54;2.47;;;1.70;;
7181;SDS011;3632;42.724;23.298;2023-04-25T12:14:23;4.00;;;2.20;;
7181;SDS011;3632;42.724;23.298;2023-04-25T12:16:56;1.70;;;1.60;;
7181;SDS011;3632;42.724;23.298;2023-04-25T12:19:25;1.40;;;0.90;;
7181;SDS011;3632;42.724;23.298;2023-04-25T12:21:59;2.17;;;1.43;;
7181;SDS011;3632;42.724;23.298;2023-04-25T12:24:26;2.70;;;1.47;;
7181;SDS011;3632;42.724;23.298;2023-04-25T12:26:57;2.23;;;1.50;;
7181;SDS011;3632;42.724;23.298;2023-04-25T12:29:27;4.50;;;1.70;;
7181;SDS011;3632;42.724;23.298;2023-04-25T12:31:55;7.87;;;2.67;;
7181;SDS011;3632;42.724;23.298;2023-04-25T12:34:23;4.03;;;2.90;;
7181;SDS011;3632;42.724;23.298;2023-04-25T12:36:50;6.27;;;4.23;;
7181;SDS011;3632;42.724;23.298;2023-04-25T12:39:20;5.30;;;4.20;;
7181;SDS011;3632;42.724;23.298;2023-04-25T12:41:48;4.80;;;2.77;;
7181;SDS011;3632;42.724;23.298;2023-04-25T12:44:15;3.53;;;2.53;;
7181;SDS011;3632;42.724;23.298;2023-04-25T12:46:42;6.77;;;5.27;;
7181;SDS011;3632;42.724;23.298;2023-04-25T12:49:10;3.27;;;2.50;;
7181;SDS011;3632;42.724;23.298;2023-04-25T12:51:37;7.17;;;5.03;;
7181;SDS011;3632;42.724;23.298;2023-04-25T12:54:05;10.37;;;8.60;;
7181;SDS011;3632;42.724;23.298;2023-04-25T12:56:33;3.53;;;3.00;;
7181;SDS011;3632;42.724;23.298;2023-04-25T12:59:01;4.57;;;3.07;;
7181;SDS011;3632;42.724;23.298;2023-04-25T13:01:28;4.27;;;2.30;;
7181;SDS011;3632;42.724;23.298;2023-04-25T13:03:55;2.30;;;2.10;;
7181;SDS011;3632;42.724;23.298;2023-04-25T13:06:22;3.97;;;1.87;;
7181;SDS011;3632;42.724;23.298;2023-04-25T13:08:49;2.93;;;2.00;;
7181;SDS011;3632;42.724;23.298;2023-04-25T13:11:16;3.07;;;2.27;;
7181;SDS011;3632;42.724;23.298;2023-04-25T13:13:44;3.77;;;2.80;;
7181;SDS011;3632;42.724;23.298;2023-04-25T13:16:11;5.10;;;3.67;;
7181;SDS011;3632;42.724;23.298;2023-04-25T13:18:39;5.07;;;3.20;;
7181;SDS011;3632;42.724;23.298;2023-04-25T13:21:06;2.93;;;2.10;;
7181;SDS011;3632;42.724;23.298;2023-04-25T13:23:33;2.50;;;2.30;;
7181;SDS011;3632;42.724;23.298;2023-04-25T13:25:59;7.03;;;2.97;;
7181;SDS011;3632;42.724;23.298;2023-04-25T13:28:27;3.57;;;2.30;;
7181;SDS011;3632;42.724;23.298;2023-04-25T13:30:55;2.80;;;2.07;;
7181;SDS011;3632;42.724;23.298;2023-04-25T13:33:22;6.47;;;3.03;;
7181;SDS011;3632;42.724;23.298;2023-04-25T13:35:49;2.60;;;2.20;;
7181;SDS011;3632;42.724;23.298;2023-04-25T13:38:19;3.77;;;1.80;;
7181;SDS011;3632;42.724;23.298;2023-04-25T13:40:47;3.53;;;2.07;;
7181;SDS011;3632;42.724;23.298;2023-04-25T13:43:14;2.47;;;2.20;;
7181;SDS011;3632;42.724;23.298;2023-04-25T13:45:41;3.83;;;1.90;;
7181;SDS011;3632;42.724;23.298;2023-04-25T13:48:10;2.87;;;1.90;;
7181;SDS011;3632;42.724;23.298;2023-04-25T13:50:37;4.07;;;2.10;;
7181;SDS011;3632;42.724;23.298;2023-04-25T13:53:04;2.70;;;1.97;;
7181;SDS011;3632;42.724;23.298;2023-04-25T13:55:30;4.57;;;2.80;;
7181;SDS011;3632;42.724;23.298;2023-04-25T13:57:57;5.10;;;4.60;;
7181;SDS011;3632;42.724;23.298;2023-04-25T14:00:24;4.57;;;2.27;;
7181;SDS011;3632;42.724;23.298;2023-04-25T14:02:52;3.87;;;2.03;;
7181;SDS011;3632;42.724;23.298;2023-04-25T14:05:20;5.03;;;3.50;;
7181;SDS011;3632;42.724;23.298;2023-04-25T14:07:48;5.43;;;2.80;;
7181;SDS011;3632;42.724;23.298;2023-04-25T14:10:15;4.57;;;3.70;;
7181;SDS011;3632;42.724;23.298;2023-04-25T14:12:42;3.80;;;3.20;;
7181;SDS011;3632;42.724;23.298;2023-04-25T14:15:09;4.57;;;2.20;;
7181;SDS011;3632;42.724;23.298;2023-04-25T14:17:36;2.50;;;1.80;;
7181;SDS011;3632;42.724;23.298;2023-04-25T14:20:05;5.23;;;4.10;;
7181;SDS011;3632;42.724;23.298;2023-04-25T14:22:35;4.37;;;2.83;;
7181;SDS011;3632;42.724;23.298;2023-04-25T14:25:06;4.97;;;3.97;;
7181;SDS011;3632;42.724;23.298;2023-04-25T14:27:34;4.93;;;4.30;;
7181;SDS011;3632;42.724;23.298;2023-04-25T14:30:00;3.43;;;2.80;;
7181;SDS011;3632;42.724;23.298;2023-04-25T14:32:27;5.13;;;3.20;;
7181;SDS011;3632;42.724;23.298;2023-04-25T14:34:57;2.70;;;1.97;;
7181;SDS011;3632;42.724;23.298;2023-04-25T14:37:23;3.73;;;2.20;;
7181;SDS011;3632;42.724;23.298;2023-04-25T14:39:52;2.87;;;2.37;;
7181;SDS011;3632;42.724;23.298;2023-04-25T14:42:18;3.67;;;2.63;;
7181;SDS011;3632;42.724;23.298;2023-04-25T14:44:45;3.87;;;3.03;;
7181;SDS011;3632;42.724;23.298;2023-04-25T14:47:12;4.07;;;1.93;;
7181;SDS011;3632;42.724;23.298;2023-04-25T14:49:40;2.70;;;2.17;;
7181;SDS011;3632;42.724;23.298;2023-04-25T14:52:07;2.57;;;1.73;;
7181;SDS011;3632;42.724;23.298;2023-04-25T14:54:35;1.77;;;1.60;;
7181;SDS011;3632;42.724;23.298;2023-04-25T14:57:03;3.23;;;1.50;;
7181;SDS011;3632;42.724;23.298;2023-04-25T14:59:30;1.90;;;1.70;;
7181;SDS011;3632;42.724;23.298;2023-04-25T15:01:56;1.20;;;1.10;;